Detall de PIREP

Printer-friendly versionPDF version

[2016/12/09 08:00:00]
Flight IATA:CT3306
Pilot Number:012
Company ICAO:CAT
Aircraft Type:B744/E
PAX:426
Departing Airport: LEZG
Destination Airport: HECA
Alternate Airport:HEBA
Online: VATSIM
Route:PONEN UN870 BCN UN725 NOLVI UM739 TABOT M739 DOPEL UM739 SONAK M979 DINUX UM979 SUDIK UM9 BONAR UM980 LOSUL A411 BRN P751 KATAB R778 CVO
Flight Level:F370
No Slew and time accel
No pause
Crash detect
Detect pilot in Cockpit between each 30 and 45 minutes
08:00 Zero fuel Weight: 480640 Lbs, Fuel Weight: 116197 Lbs
08:00 VATSIM:LEZG 090730Z 15005KT 0400 R30R/1700N R12R/0800N R30L/0900N R12L/1200D FG VV001 05/05 Q1035
08:00 VATSIM:HECA 090730Z 04014KT CAVOK 17/08 Q1026 NOSIG
08:01 Parking Brakes off
08:08 Take-off
08:08 Take off Weight: 594773 Lbs
08:08 Wind: 150º @ 005 Knots Heading: 121º
08:08 POS N41º 39´ 41´´ W001º 01´ 21´´
08:08 Flaps:3 at 181 Knots
08:08 Gear Up: 188Knots
08:08 Flaps:2 at 215 Knots
08:08 Flaps:1 at 213 Knots
08:09 Flaps:0 at 253 Knots
08:22 TOC
08:22 Fuel Weight: 102287 Lb
08:23 Wind:015º@015 Knots Heading: 089º Ground Speed: 479 Knots Altitude 37178 ft
08:38 Wind:031º@027 Knots Heading: 100º Ground Speed: 471 Knots Altitude 37552 ft
08:53 Wind:048º@047 Knots Heading: 122º Ground Speed: 470 Knots Altitude 37575 ft
09:08 Wind:060º@047 Knots Heading: 126º Ground Speed: 465 Knots Altitude 37562 ft
09:23 Wind:072º@040 Knots Heading: 128º Ground Speed: 460 Knots Altitude 37552 ft
09:38 Wind:074º@036 Knots Heading: 126º Ground Speed: 460 Knots Altitude 37526 ft
09:53 Wind:087º@020 Knots Heading: 116º Ground Speed: 464 Knots Altitude 37522 ft
10:08 Wind:193º@009 Knots Heading: 106º Ground Speed: 481 Knots Altitude 37516 ft
10:23 Wind:230º@029 Knots Heading: 109º Ground Speed: 500 Knots Altitude 37486 ft
10:38 Wind:244º@039 Knots Heading: 120º Ground Speed: 509 Knots Altitude 37440 ft
10:53 Wind:250º@071 Knots Heading: 123º Ground Speed: 531 Knots Altitude 37424 ft
11:08 Wind:261º@098 Knots Heading: 117º Ground Speed: 566 Knots Altitude 37414 ft
11:23 Wind:261º@098 Knots Heading: 137º Ground Speed: 544 Knots Altitude 37431 ft
11:38 Wind:263º@098 Knots Heading: 092º Ground Speed: 579 Knots Altitude 36994 ft
11:38 TOD
11:38 Fuel Weight: 34131 Lb
11:47 Flaps:1 at 259 Knots
11:47 Flaps:2 at 251 Knots
11:50 Flaps:3 at 227 Knots
11:53 Wind:039º@017 Knots Heading: 028º Ground Speed: 236 Knots Altitude 4599 ft
11:53 Gear Down: 204 Knots
11:53 Flaps:4 at 202 Knots
11:55 Flaps:5 at 185 Knots
11:55 Flaps:6 at 161 Knots
12:01 TouchDown:Rate -712 ft/min Speed: 130 Knots
12:01 VATSIM:HECA 091200Z 02013KT CAVOK 20/06 Q1024 NOSIG
12:01 Land
12:01 Wind:036º@016 Knots
12:01 Heading: 048º
12:01 Flight Duration: 03:53
12:01 Landing Weight: 508424 Lbs
12:01 POS N30º 06´ 36´´ E031º 25´ 52´´
12:02 Parking brakes on
12:02 Block to Block Duration: 04:01
12:02 Final Fuel: 27744 Lbls
12:02 Spent Fuel: 88452 Lbls
12:02 Flight Length: 1823 NM
12:02 TOD Land Length: 121 NM

Exportar CSV

Powered by Drupal - Modified by Danger4k